Kegley, West Virginia
Current Conditions -  °F | °C
As of 2:52 AM on Wednesday 22 Oct 2014 (Local Time) from KBLF Reporting Station
Overcast Overcast  
Wind Chill: 39°   Ceiling: 900
Heat Index: 43°   Visibility: 10mi
Dew Point: 38°   Wind: 7mph
Humidity: 82%   Direction: 300°WNW
Pressure: 30.05"   Gusts: NA
Location:  37.4°N, 81.13°W
Report Text: KBLF 220652Z AUTO 30006KT 10SM BKN009 BKN015 OVC022 06/03 A3005 RMK AO2 RAE03 CIG 008V013 SLP168 P0000 T00610033
Loading
Personal Weather Stations






























Interactive Weather Map New forecast layout! Learn more

10-Day Weather Forecast

Advertisements
Track Severe Weather on mobile